Time;durP1;ratioP1;P1;durP2;ratioP2;P2;SDS_P1;SDS_P2;PMS_P1;PMS_P2;Temp;Humidity;BMP_temperature;BMP_pressure;BME280_temperature;BME280_humidity;BME280_pressure;Samples;Min_cycle;Max_cycle;Signal;HPM_P1;HPM_P2
2021/11/10 00:01:54;;;;;;;18.47;7.83;;;;;;;-145.18;100.00;60484.78;5079468;28;20028;-67
2021/11/10 00:04:21;;;;;;;18.93;8.10;;;;;;;-145.18;100.00;60484.78;5075894;28;20144;-67
2021/11/10 00:06:46;;;;;;;19.07;8.13;;;;;;;-145.18;100.00;60484.78;5077564;28;20473;-67
2021/11/10 00:09:12;;;;;;;20.97;8.50;;;;;;;-145.18;100.00;60484.78;5081889;28;20296;-67
2021/11/10 00:11:37;;;;;;;17.80;8.03;;;;;;;-145.18;100.00;60484.78;5078867;28;20043;-67
2021/11/10 00:14:04;;;;;;;20.93;7.83;;;;;;;-145.18;100.00;60484.78;5086412;28;20110;-67
2021/11/10 00:16:30;;;;;;;19.67;8.20;;;;;;;-145.18;100.00;60484.78;5072351;28;20069;-67
2021/11/10 00:18:56;;;;;;;18.17;8.17;;;;;;;-145.18;100.00;60484.78;5079721;28;20376;-67
2021/11/10 00:21:23;;;;;;;22.23;8.90;;;;;;;-145.18;100.00;60484.78;5083341;28;20356;-67
2021/11/10 00:23:49;;;;;;;22.70;9.60;;;;;;;-145.18;100.00;60484.78;5079922;28;20411;-67
2021/11/10 00:26:15;;;;;;;22.07;8.67;;;;;;;-145.18;100.00;60484.78;5077702;28;20786;-67
2021/11/10 00:28:40;;;;;;;16.70;8.00;;;;;;;-145.18;100.00;60484.78;5080144;28;20188;-67
2021/11/10 00:31:06;;;;;;;17.97;8.20;;;;;;;-145.18;100.00;60484.78;5080944;28;20028;-67
2021/11/10 00:33:32;;;;;;;20.37;9.20;;;;;;;-145.18;100.00;60484.78;5076630;28;20547;-67
2021/11/10 00:35:57;;;;;;;24.57;8.27;;;;;;;-145.18;100.00;60484.78;5078431;28;20269;-67
2021/11/10 00:38:23;;;;;;;21.53;8.80;;;;;;;-145.18;100.00;60484.78;5078466;28;20472;-67
2021/11/10 00:40:48;;;;;;;27.63;9.00;;;;;;;-145.18;100.00;60484.78;5079869;28;20058;-67
2021/11/10 00:43:14;;;;;;;25.90;10.17;;;;;;;-145.18;100.00;60484.78;5080758;28;20432;-67
2021/11/10 00:45:40;;;;;;;25.87;9.37;;;;;;;-145.18;100.00;60484.78;5080137;28;20036;-67
2021/11/10 00:48:06;;;;;;;22.20;9.23;;;;;;;-145.18;100.00;60484.78;5078709;28;20274;-67
2021/11/10 00:50:33;;;;;;;24.80;9.23;;;;;;;-145.18;100.00;60484.78;5080917;28;20360;-67
2021/11/10 00:52:58;;;;;;;26.60;9.47;;;;;;;-145.18;100.00;60484.78;5079728;28;20462;-67
2021/11/10 00:55:25;;;;;;;28.27;8.77;;;;;;;-145.18;100.00;60484.78;5075120;28;20352;-67
2021/11/10 00:57:51;;;;;;;24.87;9.87;;;;;;;-145.18;100.00;60484.78;5074480;28;20419;-67
2021/11/10 01:00:18;;;;;;;35.17;10.27;;;;;;;-145.18;100.00;60484.78;5077121;28;20369;-67
2021/11/10 01:02:43;;;;;;;28.07;9.60;;;;;;;-145.18;100.00;60484.78;5079685;28;20411;-67
2021/11/10 01:05:09;;;;;;;26.50;10.43;;;;;;;-145.18;100.00;60484.78;5080033;28;20302;-67
2021/11/10 01:07:34;;;;;;;25.20;9.40;;;;;;;-145.18;100.00;60484.78;5077346;28;20452;-67
2021/11/10 01:10:02;;;;;;;20.53;9.50;;;;;;;-145.18;100.00;60484.78;5075973;28;20612;-67
2021/11/10 01:12:28;;;;;;;26.43;10.37;;;;;;;-145.18;100.00;60484.78;5078236;28;20326;-67
2021/11/10 01:14:54;;;;;;;25.93;9.60;;;;;;;-145.18;100.00;60484.78;5090208;28;20581;-67
2021/11/10 01:17:21;;;;;;;25.83;10.43;;;;;;;-145.18;100.00;60484.78;5084952;28;20278;-67
2021/11/10 01:19:46;;;;;;;27.83;9.33;;;;;;;-145.18;100.00;60484.78;5080368;28;20212;-67
2021/11/10 01:22:12;;;;;;;22.30;8.60;;;;;;;-145.18;100.00;60484.78;5081368;28;20396;-67
2021/11/10 01:24:38;;;;;;;25.53;9.50;;;;;;;-145.18;100.00;60484.78;5080515;28;20460;-68
2021/11/10 01:27:04;;;;;;;21.60;10.17;;;;;;;-145.18;100.00;60484.78;5082813;28;20523;-68
2021/11/10 01:29:29;;;;;;;30.97;10.10;;;;;;;-145.18;100.00;60484.78;5078238;28;20124;-68
2021/11/10 01:31:55;;;;;;;30.87;10.30;;;;;;;-145.18;100.00;60484.78;5079154;28;20028;-68
2021/11/10 01:34:20;;;;;;;27.90;10.73;;;;;;;-145.18;100.00;60484.78;5066559;28;20190;-68
2021/11/10 01:36:46;;;;;;;28.83;10.13;;;;;;;-145.18;100.00;60484.78;5075288;28;20024;-68
2021/11/10 01:39:12;;;;;;;33.67;11.10;;;;;;;-145.18;100.00;60484.78;5073082;28;20081;-68
2021/11/10 01:41:48;;;;;;;25.57;9.53;;;;;;;-145.18;100.00;60484.78;5076573;28;20365;-68
2021/11/10 01:44:16;;;;;;;29.17;10.40;;;;;;;-145.18;100.00;60484.78;5077867;28;20278;-67
2021/11/10 01:46:41;;;;;;;30.90;10.70;;;;;;;-145.18;100.00;60484.78;5079684;28;20300;-67
2021/11/10 01:49:08;;;;;;;31.70;10.90;;;;;;;-145.18;100.00;60484.78;5079482;28;20270;-68
2021/11/10 01:51:34;;;;;;;28.73;10.70;;;;;;;-145.18;100.00;60484.78;5079114;28;20047;-67
2021/11/10 01:53:59;;;;;;;38.23;11.30;;;;;;;-145.18;100.00;60484.78;5077576;28;21010;-68
2021/11/10 01:56:25;;;;;;;34.97;11.10;;;;;;;-145.18;100.00;60484.78;5077853;28;20178;-68
2021/11/10 01:58:51;;;;;;;35.70;11.07;;;;;;;-145.18;100.00;60484.78;5079263;28;20028;-68
2021/11/10 02:01:16;;;;;;;31.23;10.13;;;;;;;-145.18;100.00;60484.78;5078751;28;20279;-68
2021/11/10 02:03:43;;;;;;;34.23;11.57;;;;;;;-145.18;100.00;60484.78;5068062;28;20101;-67
2021/11/10 02:06:09;;;;;;;28.33;10.20;;;;;;;-145.18;100.00;60484.78;5062347;28;20123;-67
2021/11/10 02:08:34;;;;;;;31.83;10.97;;;;;;;-145.18;100.00;60484.78;5075365;28;20798;-67
2021/11/10 02:11:00;;;;;;;31.33;11.30;;;;;;;-145.18;100.00;60484.78;5079417;28;20404;-67
2021/11/10 02:13:25;;;;;;;33.50;12.03;;;;;;;-145.18;100.00;60484.78;5079404;28;20048;-68
2021/11/10 02:15:51;;;;;;;31.60;10.53;;;;;;;-145.18;100.00;60484.78;5079460;28;20019;-68
2021/11/10 02:18:16;;;;;;;33.97;11.40;;;;;;;-145.18;100.00;60484.78;5068842;28;20455;-67
2021/11/10 02:20:42;;;;;;;30.73;11.57;;;;;;;-145.18;100.00;60484.78;5079167;28;20567;-68
2021/11/10 02:23:08;;;;;;;31.10;12.47;;;;;;;-145.18;100.00;60484.78;5079141;28;20326;-68
2021/11/10 02:25:34;;;;;;;35.73;12.27;;;;;;;-145.18;100.00;60484.78;5079377;28;20035;-67
2021/11/10 02:28:00;;;;;;;42.83;11.73;;;;;;;-145.18;100.00;60484.78;5078433;28;20311;-68
2021/11/10 02:30:26;;;;;;;39.57;13.03;;;;;;;-145.18;100.00;60484.78;5078078;28;20286;-68
2021/11/10 02:32:59;;;;;;;40.77;12.43;;;;;;;-145.18;100.00;60484.78;5076516;28;20029;-68
2021/11/10 02:35:27;;;;;;;41.03;12.43;;;;;;;-145.18;100.00;60484.78;5072135;28;20278;-68
2021/11/10 02:38:05;;;;;;;32.83;12.37;;;;;;;-145.18;100.00;60484.78;5078713;28;20662;-68
2021/11/10 02:40:31;;;;;;;34.60;11.83;;;;;;;-145.18;100.00;60484.78;5078802;28;20366;-68
2021/11/10 02:42:58;;;;;;;33.10;11.53;;;;;;;-145.18;100.00;60484.78;5068247;28;20840;-68
2021/11/10 02:45:26;;;;;;;37.60;12.30;;;;;;;-145.18;100.00;60484.78;5075075;28;20461;-68
2021/11/10 02:47:52;;;;;;;35.60;13.47;;;;;;;-145.18;100.00;60484.78;5075970;28;20274;-68
2021/11/10 02:50:18;;;;;;;34.73;11.73;;;;;;;-145.18;100.00;60484.78;5078171;28;20281;-67
2021/11/10 02:52:44;;;;;;;45.37;13.37;;;;;;;-145.18;100.00;60484.78;5073422;28;20040;-67
2021/11/10 02:55:10;;;;;;;40.33;12.20;;;;;;;-145.18;100.00;60484.78;5071290;28;20503;-68
2021/11/10 02:57:36;;;;;;;44.87;12.60;;;;;;;-145.18;100.00;60484.78;5075956;28;20419;-67
2021/11/10 03:00:04;;;;;;;45.53;13.17;;;;;;;-145.18;100.00;60484.78;5070421;28;20331;-68
2021/11/10 03:02:31;;;;;;;38.90;13.67;;;;;;;-145.18;100.00;60484.78;5076002;28;20437;-68
2021/11/10 03:04:58;;;;;;;41.03;13.03;;;;;;;-145.18;100.00;60484.78;5064908;28;20762;-68
2021/11/10 03:07:24;;;;;;;46.83;13.40;;;;;;;-145.18;100.00;60484.78;5075216;28;20296;-67
2021/11/10 03:09:50;;;;;;;33.27;10.73;;;;;;;-145.18;100.00;60484.78;5075879;28;20306;-67
2021/11/10 03:12:18;;;;;;;60.23;13.13;;;;;;;-145.18;100.00;60484.78;5078127;28;20285;-67
2021/11/10 03:14:45;;;;;;;45.17;13.57;;;;;;;-145.18;100.00;60484.78;5078674;28;20031;-67
2021/11/10 03:17:14;;;;;;;36.77;12.50;;;;;;;-145.18;100.00;60484.78;5076645;28;20828;-68
2021/11/10 03:19:41;;;;;;;36.87;12.87;;;;;;;-145.18;100.00;60484.78;5081992;28;20615;-70
2021/11/10 03:22:08;;;;;;;40.23;12.00;;;;;;;-145.18;100.00;60484.78;5077274;28;20271;-70
2021/11/10 03:24:35;;;;;;;36.37;12.73;;;;;;;-145.18;100.00;60484.78;5075854;28;20357;-70
2021/11/10 03:27:00;;;;;;;41.93;12.37;;;;;;;-145.18;100.00;60484.78;5075371;28;20729;-70
2021/11/10 03:29:26;;;;;;;38.50;11.63;;;;;;;-145.18;100.00;60484.78;5078281;28;20392;-70
2021/11/10 03:31:51;;;;;;;33.50;11.27;;;;;;;-145.18;100.00;60484.78;5078138;28;20296;-70
2021/11/10 03:34:17;;;;;;;32.77;11.67;;;;;;;-145.18;100.00;60484.78;5076956;28;20032;-69
2021/11/10 03:36:43;;;;;;;35.03;11.80;;;;;;;-145.18;100.00;60484.78;5069473;28;20048;-69
2021/11/10 03:39:11;;;;;;;34.93;11.23;;;;;;;-145.18;100.00;60484.78;5076212;28;20578;-70
2021/11/10 03:41:37;;;;;;;55.10;13.30;;;;;;;-145.18;100.00;60484.78;5078144;28;20043;-70
2021/11/10 03:44:03;;;;;;;36.63;12.07;;;;;;;-145.18;100.00;60484.78;5075985;28;20312;-70
2021/11/10 03:46:29;;;;;;;33.03;11.10;;;;;;;-145.18;100.00;60484.78;5077797;28;20308;-70
2021/11/10 03:48:55;;;;;;;38.07;12.33;;;;;;;-145.18;100.00;60484.78;5078131;28;20349;-70
2021/11/10 03:51:21;;;;;;;40.10;13.57;;;;;;;-145.18;100.00;60484.78;5077044;28;20360;-69
2021/11/10 03:53:47;;;;;;;47.67;12.93;;;;;;;-145.18;100.00;60484.78;5077636;28;20488;-70
2021/11/10 03:56:13;;;;;;;43.47;13.80;;;;;;;-145.18;100.00;60484.78;5076538;28;20017;-68
2021/11/10 03:58:40;;;;;;;38.37;12.70;;;;;;;-145.18;100.00;60484.78;5076498;28;20377;-69
2021/11/10 04:01:06;;;;;;;40.37;13.17;;;;;;;-145.18;100.00;60484.78;5068299;28;20278;-68
2021/11/10 04:03:33;;;;;;;40.30;11.77;;;;;;;-145.18;100.00;60484.78;5063145;28;20453;-69
2021/11/10 04:05:59;;;;;;;36.37;12.50;;;;;;;-145.18;100.00;60484.78;5074603;28;20458;-69
2021/11/10 04:08:24;;;;;;;39.17;12.50;;;;;;;-145.18;100.00;60484.78;5076541;28;20270;-69
2021/11/10 04:10:50;;;;;;;43.20;13.37;;;;;;;-145.18;100.00;60484.78;5080682;28;20051;-69
2021/11/10 04:13:17;;;;;;;44.93;13.83;;;;;;;-145.18;100.00;60484.78;5077480;28;20105;-69
2021/11/10 04:15:42;;;;;;;48.60;14.23;;;;;;;-145.18;100.00;60484.78;5076913;28;20658;-69
2021/11/10 04:18:08;;;;;;;43.73;13.57;;;;;;;-145.18;100.00;60484.78;5076338;28;20274;-69
2021/11/10 04:20:34;;;;;;;54.50;15.83;;;;;;;-145.18;100.00;60484.78;5077775;28;20111;-69
2021/11/10 04:22:59;;;;;;;51.83;15.00;;;;;;;-145.18;100.00;60484.78;5068824;28;20039;-69
2021/11/10 04:25:25;;;;;;;55.27;15.23;;;;;;;-145.18;100.00;60484.78;5080108;28;20031;-69
2021/11/10 04:27:51;;;;;;;49.17;14.37;;;;;;;-145.18;100.00;60484.78;5080938;28;20016;-69
2021/11/10 04:30:17;;;;;;;53.27;16.17;;;;;;;-145.18;100.00;60484.78;5078184;28;20257;-69
2021/11/10 04:32:44;;;;;;;51.03;15.07;;;;;;;-145.18;100.00;60484.78;5072960;28;20278;-69
2021/11/10 04:35:11;;;;;;;44.77;13.50;;;;;;;-145.18;100.00;60484.78;5071491;28;20411;-69
2021/11/10 04:37:37;;;;;;;47.17;13.77;;;;;;;-145.18;100.00;60484.78;5080262;28;20286;-69
2021/11/10 04:40:04;;;;;;;44.53;13.83;;;;;;;-145.18;100.00;60484.78;5079348;28;20400;-69
2021/11/10 04:42:30;;;;;;;44.50;13.13;;;;;;;-145.18;100.00;60484.78;5076689;28;20073;-69
2021/11/10 04:45:05;;;;;;;43.30;13.23;;;;;;;-145.18;100.00;60484.78;5072452;28;20686;-69
2021/11/10 04:47:31;;;;;;;49.27;13.90;;;;;;;-145.18;100.00;60484.78;5076461;28;20031;-69
2021/11/10 04:49:56;;;;;;;49.43;14.07;;;;;;;-145.18;100.00;60484.78;5079907;28;20270;-69
2021/11/10 04:52:22;;;;;;;55.03;15.03;;;;;;;-145.18;100.00;60484.78;5068506;28;20273;-69
2021/11/10 04:54:49;;;;;;;44.63;14.27;;;;;;;-145.18;100.00;60484.78;5078408;28;20036;-69
2021/11/10 04:57:14;;;;;;;45.43;13.13;;;;;;;-145.18;100.00;60484.78;5069184;28;20023;-69
2021/11/10 04:59:40;;;;;;;40.30;13.33;;;;;;;-145.18;100.00;60484.78;5076913;28;20675;-69
2021/11/10 05:04:35;;;;;;;39.40;12.97;;;;;;;-145.18;100.00;60484.78;5076710;28;20272;-69
2021/11/10 05:07:01;;;;;;;48.77;13.87;;;;;;;-145.18;100.00;60484.78;5079338;28;20358;-69
2021/11/10 05:09:27;;;;;;;47.00;13.87;;;;;;;-145.18;100.00;60484.78;5075768;28;20319;-69
2021/11/10 05:11:53;;;;;;;52.27;14.67;;;;;;;-145.18;100.00;60484.78;5077113;28;20429;-69
2021/11/10 05:14:19;;;;;;;50.47;15.10;;;;;;;-145.18;100.00;60484.78;5080072;28;20036;-69
2021/11/10 05:16:44;;;;;;;43.50;15.03;;;;;;;-145.18;100.00;60484.78;5078227;28;20291;-69
2021/11/10 05:19:10;;;;;;;42.67;14.03;;;;;;;-145.18;100.00;60484.78;5075469;28;20043;-67
2021/11/10 05:21:35;;;;;;;47.00;14.23;;;;;;;-145.18;100.00;60484.78;5068887;28;20028;-67
2021/11/10 05:24:02;;;;;;;43.03;14.27;;;;;;;-145.18;100.00;60484.78;5078370;28;20107;-67
2021/11/10 05:26:28;;;;;;;46.60;14.43;;;;;;;-145.18;100.00;60484.78;5076651;28;20024;-66
2021/11/10 05:28:53;;;;;;;54.37;15.93;;;;;;;-145.18;100.00;60484.78;5079815;28;20277;-66
2021/11/10 05:31:19;;;;;;;43.37;14.63;;;;;;;-145.18;100.00;60484.78;5072567;28;20020;-67
2021/11/10 05:33:44;;;;;;;53.13;15.70;;;;;;;-145.18;100.00;60484.78;5079712;28;20602;-68
2021/11/10 05:36:12;;;;;;;54.60;15.53;;;;;;;-145.18;100.00;60484.78;5078996;28;20035;-67
2021/11/10 05:38:38;;;;;;;48.23;15.10;;;;;;;-145.18;100.00;60484.78;5080193;28;20507;-66
2021/11/10 05:41:04;;;;;;;52.40;15.63;;;;;;;-145.18;100.00;60484.78;5080081;28;20278;-68
2021/11/10 05:43:30;;;;;;;53.77;15.77;;;;;;;-145.18;100.00;60484.78;5079124;28;20062;-66
2021/11/10 05:45:55;;;;;;;65.03;16.13;;;;;;;-145.18;100.00;60484.78;5078548;28;20056;-66
2021/11/10 05:48:21;;;;;;;51.50;15.87;;;;;;;-145.18;100.00;60484.78;5072695;28;20590;-66
2021/11/10 05:50:46;;;;;;;48.63;14.90;;;;;;;-145.18;100.00;60484.78;5077584;28;20032;-66
2021/11/10 05:53:12;;;;;;;45.33;14.10;;;;;;;-145.18;100.00;60484.78;5079543;28;20111;-66
2021/11/10 05:55:40;;;;;;;47.70;13.80;;;;;;;-145.18;100.00;60484.78;5076951;28;20112;-66
2021/11/10 05:58:05;;;;;;;53.20;14.30;;;;;;;-145.18;100.00;60484.78;5075636;28;20305;-66
2021/11/10 06:00:31;;;;;;;44.17;12.40;;;;;;;-145.18;100.00;60484.78;5077987;28;20306;-66
2021/11/10 06:02:56;;;;;;;44.67;12.83;;;;;;;-145.18;100.00;60484.78;5082065;28;20032;-66
2021/11/10 06:05:22;;;;;;;38.40;12.47;;;;;;;-145.18;100.00;60484.78;5075506;28;20032;-66
2021/11/10 06:07:49;;;;;;;44.77;13.37;;;;;;;-145.18;100.00;60484.78;5077937;28;20024;-66
2021/11/10 06:10:16;;;;;;;52.27;14.67;;;;;;;-145.18;100.00;60484.78;5078285;28;20349;-66
2021/11/10 06:12:43;;;;;;;46.43;13.53;;;;;;;-145.18;100.00;60484.78;5077591;28;20924;-66
2021/11/10 06:15:09;;;;;;;46.13;14.63;;;;;;;-145.18;100.00;60484.78;5077928;28;20506;-66
2021/11/10 06:17:34;;;;;;;51.90;15.13;;;;;;;-145.18;100.00;60484.78;5076066;28;20567;-66
2021/11/10 06:20:02;;;;;;;45.17;15.07;;;;;;;-145.18;100.00;60484.78;5072634;28;20026;-66
2021/11/10 06:22:28;;;;;;;46.70;15.27;;;;;;;-145.18;100.00;60484.78;5077498;28;20032;-66
2021/11/10 06:24:53;;;;;;;51.07;16.07;;;;;;;-145.18;100.00;60484.78;5078172;28;20266;-66
2021/11/10 06:27:18;;;;;;;63.57;16.57;;;;;;;-145.18;100.00;60484.78;5078977;28;20357;-66
2021/11/10 06:29:44;;;;;;;45.77;15.37;;;;;;;-145.18;100.00;60484.78;5074375;28;20043;-66
2021/11/10 06:32:10;;;;;;;47.43;15.00;;;;;;;-145.18;100.00;60484.78;5069800;28;20069;-66
2021/11/10 06:34:35;;;;;;;51.33;14.90;;;;;;;-145.18;100.00;60484.78;5076357;28;20026;-66
2021/11/10 06:37:01;;;;;;;47.57;15.50;;;;;;;-145.18;100.00;60484.78;5073664;28;20077;-66
2021/11/10 06:39:26;;;;;;;53.77;14.87;;;;;;;-145.18;100.00;60484.78;5070799;28;20111;-66
2021/11/10 06:41:52;;;;;;;53.93;17.00;;;;;;;-145.18;100.00;60484.78;5078536;28;20490;-66
2021/11/10 06:44:18;;;;;;;57.53;16.63;;;;;;;-145.18;100.00;60484.78;5078778;28;20272;-66
2021/11/10 06:46:43;;;;;;;69.17;19.13;;;;;;;-145.18;100.00;60484.78;5078336;28;20050;-66
2021/11/10 06:49:08;;;;;;;59.60;18.50;;;;;;;-145.18;100.00;60484.78;5077462;28;20024;-66
2021/11/10 06:51:34;;;;;;;66.33;20.47;;;;;;;-145.18;100.00;60484.78;5078479;28;20020;-66
2021/11/10 06:53:59;;;;;;;65.83;20.00;;;;;;;-145.18;100.00;60484.78;5078635;28;20172;-66
2021/11/10 06:56:25;;;;;;;59.07;18.03;;;;;;;-145.18;100.00;60484.78;5074239;28;20286;-66
2021/11/10 06:58:50;;;;;;;58.93;17.53;;;;;;;-145.18;100.00;60484.78;5074853;28;20020;-66
2021/11/10 07:01:17;;;;;;;62.27;17.27;;;;;;;-145.18;100.00;60484.78;5066212;28;20032;-66
2021/11/10 07:03:42;;;;;;;63.53;17.17;;;;;;;-145.18;100.00;60484.78;5073795;28;20400;-66
2021/11/10 07:06:08;;;;;;;58.57;17.60;;;;;;;-145.18;100.00;60484.78;5077137;28;20412;-66
2021/11/10 07:08:33;;;;;;;53.70;15.37;;;;;;;-145.18;100.00;60484.78;5068236;28;20027;-66
2021/11/10 07:10:59;;;;;;;57.30;17.37;;;;;;;-145.18;100.00;60484.78;5068781;28;20039;-66
2021/11/10 07:13:24;;;;;;;50.97;15.87;;;;;;;-145.18;100.00;60484.78;5071398;28;20362;-66
2021/11/10 07:15:50;;;;;;;47.40;15.93;;;;;;;-145.18;100.00;60484.78;5074222;28;20434;-66
2021/11/10 07:18:15;;;;;;;50.10;15.53;;;;;;;-145.18;100.00;60484.78;5074993;28;20016;-66
2021/11/10 07:20:41;;;;;;;55.23;15.40;;;;;;;-145.18;100.00;60484.78;5074777;28;20147;-66
2021/11/10 07:23:07;;;;;;;45.97;14.47;;;;;;;-145.18;100.00;60484.78;5071200;28;20536;-66
2021/11/10 07:25:32;;;;;;;37.07;12.67;;;;;;;-145.18;100.00;60484.78;5076912;28;20073;-66
2021/11/10 07:27:58;;;;;;;41.83;12.23;;;;;;;-145.18;100.00;60484.78;5078230;28;20809;-66
2021/11/10 07:30:24;;;;;;;38.27;12.70;;;;;;;-145.18;100.00;60484.78;5068940;28;20204;-66
2021/11/10 07:32:50;;;;;;;43.77;14.27;;;;;;;-145.18;100.00;60484.78;5066046;28;20496;-66
2021/11/10 07:35:15;;;;;;;48.57;14.27;;;;;;;-145.18;100.00;60484.78;5067960;28;20045;-66
2021/11/10 07:37:42;;;;;;;48.40;13.93;;;;;;;-145.18;100.00;60484.78;5072847;28;20399;-66
2021/11/10 07:40:08;;;;;;;41.97;14.03;;;;;;;-145.18;100.00;60484.78;5077462;28;20043;-66
2021/11/10 07:42:34;;;;;;;48.63;15.23;;;;;;;-145.18;100.00;60484.78;5079090;28;20560;-66
2021/11/10 07:45:15;;;;;;;47.40;14.37;;;;;;;-145.18;100.00;60484.78;5072804;28;20357;-66
2021/11/10 07:47:41;;;;;;;45.30;13.97;;;;;;;-145.18;100.00;60484.78;5082158;28;20831;-66
2021/11/10 07:50:09;;;;;;;48.50;14.43;;;;;;;-145.18;100.00;60484.78;5079126;28;20305;-66
2021/11/10 07:52:34;;;;;;;35.13;12.90;;;;;;;-145.18;100.00;60484.78;5076427;28;20277;-66
2021/11/10 07:55:00;;;;;;;29.47;10.97;;;;;;;-145.18;100.00;60484.78;5080407;28;20513;-66
2021/11/10 07:57:26;;;;;;;26.20;10.20;;;;;;;-145.18;100.00;60484.78;5078629;28;20150;-66
2021/11/10 07:59:51;;;;;;;22.43;9.40;;;;;;;-145.18;100.00;60484.78;5073942;28;20020;-66
2021/11/10 08:02:17;;;;;;;21.07;8.87;;;;;;;-145.18;100.00;60484.78;5076722;28;20024;-66
2021/11/10 08:04:42;;;;;;;19.93;8.20;;;;;;;-145.18;100.00;60484.78;5068799;28;20077;-66
2021/11/10 08:07:07;;;;;;;15.20;7.40;;;;;;;-145.18;100.00;60484.78;5069521;28;20020;-66
2021/11/10 08:09:33;;;;;;;16.83;6.47;;;;;;;-145.18;100.00;60484.78;5078148;28;20278;-66
2021/11/10 08:11:58;;;;;;;10.23;5.30;;;;;;;-145.18;100.00;60484.78;5071401;28;20029;-66
2021/11/10 08:14:26;;;;;;;9.70;5.30;;;;;;;-145.18;100.00;60484.78;5072396;28;20212;-66
2021/11/10 08:16:52;;;;;;;10.10;5.07;;;;;;;-145.18;100.00;60484.78;5077124;28;20039;-66
2021/11/10 08:19:17;;;;;;;7.43;3.80;;;;;;;-145.18;100.00;60484.78;5076264;28;20476;-66
2021/11/10 08:21:43;;;;;;;9.83;4.10;;;;;;;-145.18;100.00;60484.78;5083150;28;20657;-66
2021/11/10 08:24:08;;;;;;;12.00;4.13;;;;;;;-145.18;100.00;60484.78;5088562;28;20028;-66
2021/11/10 08:26:33;;;;;;;6.60;3.73;;;;;;;-145.18;100.00;60484.78;5071012;28;20274;-66
2021/11/10 08:28:59;;;;;;;8.63;4.07;;;;;;;-145.18;100.00;60484.78;5070008;28;20400;-66
2021/11/10 08:31:24;;;;;;;8.67;4.10;;;;;;;-145.18;100.00;60484.78;5077387;28;20056;-67
2021/11/10 08:33:50;;;;;;;9.03;4.13;;;;;;;-145.18;100.00;60484.78;5068704;28;20159;-67
2021/11/10 08:36:15;;;;;;;6.37;3.03;;;;;;;-145.18;100.00;60484.78;5078420;28;20031;-67
2021/11/10 08:38:41;;;;;;;11.87;4.13;;;;;;;-145.18;100.00;60484.78;5073785;28;20059;-67
2021/11/10 08:41:07;;;;;;;9.90;3.83;;;;;;;-145.18;100.00;60484.78;5080992;28;20024;-67
2021/11/10 08:43:32;;;;;;;8.57;3.90;;;;;;;-145.18;100.00;60484.78;5075524;28;20012;-67
2021/11/10 08:45:58;;;;;;;9.80;4.10;;;;;;;-145.18;100.00;60484.78;5080747;28;20016;-66
2021/11/10 08:48:25;;;;;;;7.53;4.10;;;;;;;-145.18;100.00;60484.78;5075957;28;20123;-66
2021/11/10 08:50:51;;;;;;;9.97;4.60;;;;;;;-145.18;100.00;60484.78;5066124;28;20027;-66
2021/11/10 08:53:19;;;;;;;8.77;4.23;;;;;;;-145.18;100.00;60484.78;5071868;28;20191;-66
2021/11/10 08:55:51;;;;;;;9.73;5.10;;;;;;;-145.18;100.00;60484.78;5073708;28;20020;-66
2021/11/10 08:58:17;;;;;;;12.15;4.70;;;;;;;-145.18;100.00;60484.78;5070382;28;20032;-66
2021/11/10 09:00:43;;;;;;;9.80;4.93;;;;;;;-145.18;100.00;60484.78;5074723;28;20112;-66
2021/11/10 09:03:09;;;;;;;11.03;5.40;;;;;;;-145.18;100.00;60484.78;5070386;28;20161;-66
2021/11/10 09:05:35;;;;;;;14.77;5.20;;;;;;;-145.18;100.00;60484.78;5066750;28;20106;-66
2021/11/10 09:08:00;;;;;;;11.17;5.60;;;;;;;-145.18;100.00;60484.78;5062105;28;20783;-66
2021/11/10 09:10:26;;;;;;;12.90;5.63;;;;;;;-145.18;100.00;60484.78;5075482;28;20035;-66
2021/11/10 09:12:52;;;;;;;13.03;5.47;;;;;;;-145.18;100.00;60484.78;5072550;28;20105;-66
2021/11/10 09:15:21;;;;;;;12.40;4.97;;;;;;;-145.18;100.00;60484.78;5068639;28;20024;-66
2021/11/10 09:17:48;;;;;;;13.37;5.73;;;;;;;-145.18;100.00;60484.78;5072854;28;20449;-66
2021/11/10 09:20:20;;;;;;;9.93;5.50;;;;;;;-145.18;100.00;60484.78;5068323;28;20032;-66
2021/11/10 09:22:46;;;;;;;;;;;;;;;-145.18;100.00;60484.78;5071587;28;20196;-66
2021/11/10 09:25:14;;;;;;;11.60;5.53;;;;;;;-145.18;100.00;60484.78;5074796;28;20142;-66
2021/11/10 09:27:40;;;;;;;12.37;6.20;;;;;;;-145.18;100.00;60484.78;5075052;28;20243;-66
2021/11/10 09:30:09;;;;;;;10.97;5.80;;;;;;;-145.18;100.00;60484.78;5068303;28;20487;-67
2021/11/10 09:32:36;;;;;;;15.00;5.60;;;;;;;-145.18;100.00;60484.78;5074486;28;20023;-67
2021/11/10 09:35:02;;;;;;;13.53;5.20;;;;;;;-145.18;100.00;60484.78;5072236;28;20028;-66
2021/11/10 09:37:27;;;;;;;12.57;5.10;;;;;;;-145.18;100.00;60484.78;5074444;28;20046;-66
2021/11/10 09:39:53;;;;;;;11.47;5.20;;;;;;;-145.18;100.00;60484.78;5068402;28;20025;-66
2021/11/10 09:42:23;;;;;;;12.93;6.00;;;;;;;-145.18;100.00;60484.78;5071502;28;20112;-66
2021/11/10 09:44:52;;;;;;;11.70;5.40;;;;;;;-145.18;100.00;60484.78;5076764;28;20528;-66
2021/11/10 09:47:18;;;;;;;10.37;5.13;;;;;;;-145.18;100.00;60484.78;5073532;28;20575;-66
2021/11/10 09:49:44;;;;;;;12.97;5.20;;;;;;;-145.18;100.00;60484.78;5074515;28;20046;-66
2021/11/10 09:52:09;;;;;;;12.10;5.37;;;;;;;-145.18;100.00;60484.78;5068423;28;20032;-66
2021/11/10 09:54:35;;;;;;;15.23;6.23;;;;;;;-145.18;100.00;60484.78;5068436;28;20043;-67
2021/11/10 09:57:01;;;;;;;11.97;5.17;;;;;;;-145.18;100.00;60484.78;5068141;28;20313;-66
2021/11/10 09:59:27;;;;;;;12.63;4.80;;;;;;;-145.18;100.00;60484.78;5071850;28;20029;-66
2021/11/10 10:01:54;;;;;;;17.40;5.17;;;;;;;-145.18;100.00;60484.78;5069746;28;20039;-66
2021/11/10 10:04:21;;;;;;;11.83;4.90;;;;;;;-145.18;100.00;60484.78;5067303;28;20083;-67
2021/11/10 10:06:47;;;;;;;19.27;5.37;;;;;;;-145.18;100.00;60484.78;5066670;28;20036;-67
2021/11/10 10:09:12;;;;;;;17.37;6.13;;;;;;;-145.18;100.00;60484.78;5069369;28;20028;-66
2021/11/10 10:11:38;;;;;;;14.23;4.70;;;;;;;-145.18;100.00;60484.78;5065539;28;20103;-66
2021/11/10 10:14:03;;;;;;;11.23;5.37;;;;;;;-145.18;100.00;60484.78;5067402;28;20256;-66
2021/11/10 10:16:30;;;;;;;13.77;5.50;;;;;;;-145.18;100.00;60484.78;5069736;28;20081;-66
2021/11/10 10:19:09;;;;;;;11.50;5.20;;;;;;;-145.18;100.00;60484.78;5069233;28;20032;-66
2021/11/10 10:21:40;;;;;;;11.90;5.17;;;;;;;-145.18;100.00;60484.78;5071138;28;20033;-66
2021/11/10 10:24:09;;;;;;;13.97;4.77;;;;;;;-145.18;100.00;60484.78;5064839;28;20038;-66
2021/11/10 10:26:35;;;;;;;11.23;5.07;;;;;;;-145.18;100.00;60484.78;5065472;28;20021;-67
2021/11/10 10:29:07;;;;;;;12.27;4.97;;;;;;;-145.18;100.00;60484.78;5067147;28;20185;-67
2021/11/10 10:31:33;;;;;;;11.77;5.20;;;;;;;-145.18;100.00;60484.78;5075756;28;20108;-67
2021/11/10 10:34:02;;;;;;;12.60;5.00;;;;;;;-145.18;100.00;60484.78;5069120;28;20491;-66
2021/11/10 10:36:33;;;;;;;12.90;4.60;;;;;;;-145.18;100.00;60484.78;5074814;28;20404;-66
2021/11/10 10:39:17;;;;;;;12.77;5.07;;;;;;;-145.18;100.00;60484.78;5071989;28;20104;-67
2021/11/10 10:41:45;;;;;;;19.73;5.37;;;;;;;-145.18;100.00;60484.78;5070453;28;20305;-67
2021/11/10 10:44:30;;;;;;;14.87;5.87;;;;;;;-145.18;100.00;60484.78;5068901;28;20550;-67
2021/11/10 10:46:58;;;;;;;13.57;5.40;;;;;;;-145.18;100.00;60484.78;5070670;28;20209;-67
2021/11/10 10:49:32;;;;;;;14.03;6.20;;;;;;;-145.18;100.00;60484.78;5071067;28;20497;-67
2021/11/10 10:52:13;;;;;;;11.77;5.23;;;;;;;-145.18;100.00;60484.78;5066307;28;20113;-66
2021/11/10 10:54:47;;;;;;;12.90;5.70;;;;;;;-145.18;100.00;60484.78;5075048;28;20177;-66
2021/11/10 10:57:39;;;;;;;12.47;5.70;;;;;;;-145.18;100.00;60484.78;5075514;28;20685;-66